Time;durP1;ratioP1;P1;durP2;ratioP2;P2;SDS_P1;SDS_P2;PMS_P1;PMS_P2;Temp;Humidity;BMP_temperature;BMP_pressure;BME280_temperature;BME280_humidity;BME280_pressure;Samples;Min_cycle;Max_cycle;Signal;HPM_P1;HPM_P2
2021/02/22 00:02:08;;;;;;;1;0.9;;;;;;;4.6;58.99609;939.7461;;;;
2021/02/22 00:04:33;;;;;;;2.4;1.1;;;;;;;4.65;59.08203;939.764;;;;
2021/02/22 00:06:58;;;;;;;5.6;1.8;;;;;;;4.65;59.10352;939.7946;;;;
2021/02/22 00:09:30;;;;;;;5.1;1.2;;;;;;;4.58;58.81348;939.7756;;;;
2021/02/22 00:12:16;;;;;;;12.2;1.7;;;;;;;4.58;59.07227;939.7723;;;;
2021/02/22 00:15:07;;;;;;;1;0.9;;;;;;;4.73;58.33887;939.77;;;;
2021/02/22 00:17:43;;;;;;;2.8;1.3;;;;;;;4.65;58.47266;939.8538;;;;
2021/02/22 00:20:20;;;;;;;8.9;1.4;;;;;;;4.5;59.17383;939.9352;;;;
2021/02/22 00:22:56;;;;;;;1.5;1.4;;;;;;;4.5;59.51074;939.9825;;;;
2021/02/22 00:25:43;;;;;;;15.4;2.2;;;;;;;4.45;60.25781;940.0524;;;;
2021/02/22 00:28:25;;;;;;;8;2.6;;;;;;;4.4;60.71191;940.1008;;;;
2021/02/22 00:31:10;;;;;;;8.5;2.3;;;;;;;4.4;60.99414;940.0884;;;;
2021/02/22 00:33:38;;;;;;;4.9;1.6;;;;;;;4.36;60.90918;940.0914;;;;
2021/02/22 00:36:13;;;;;;;2.3;1.4;;;;;;;4.26;61.2666;940.1101;;;;
2021/02/22 00:38:39;;;;;;;3.7;1.5;;;;;;;4.3;60.85547;940.1145;;;;
2021/02/22 00:41:08;;;;;;;5.8;1.8;;;;;;;4.33;60.83789;940.1395;;;;
2021/02/22 00:43:42;;;;;;;5.9;2.5;;;;;;;4.28;61.02246;940.193;;;;
2021/02/22 00:46:16;;;;;;;6.2;2;;;;;;;4.08;62.04004;940.1932;;;;
2021/02/22 00:48:50;;;;;;;3.8;1.7;;;;;;;4.17;61.45605;940.1934;;;;
2021/02/22 00:51:21;;;;;;;4.6;2.3;;;;;;;3.81;62.85352;940.3286;;;;
2021/02/22 00:53:52;;;;;;;4.3;1.9;;;;;;;3.82;62.55176;940.2935;;;;
2021/02/22 00:56:17;;;;;;;7.4;2.8;;;;;;;4;62.49902;940.3221;;;;
2021/02/22 00:58:48;;;;;;;10.7;3.8;;;;;;;3.99;63.03809;940.3024;;;;
2021/02/22 01:01:19;;;;;;;6.3;3;;;;;;;3.93;62.75879;940.262;;;;
2021/02/22 01:03:44;;;;;;;9.9;3.1;;;;;;;3.97;62.81152;940.2772;;;;
2021/02/22 01:06:09;;;;;;;7.4;2.8;;;;;;;4;62.92773;940.3279;;;;
2021/02/22 01:08:34;;;;;;;14.2;2.6;;;;;;;3.97;62.61914;940.3439;;;;
2021/02/22 01:11:18;;;;;;;7.5;2.7;;;;;;;4.1;62.08789;940.313;;;;
2021/02/22 01:13:50;;;;;;;6.9;3.1;;;;;;;4.21;61.63086;940.3739;;;;
2021/02/22 01:16:22;;;;;;;11.4;2.6;;;;;;;4.08;61.54395;940.3649;;;;
2021/02/22 01:18:59;;;;;;;9.4;3;;;;;;;3.93;62.04004;940.4371;;;;
2021/02/22 01:21:33;;;;;;;8.5;2.1;;;;;;;3.94;62.00781;940.4171;;;;
2021/02/22 01:23:58;;;;;;;9.3;2.7;;;;;;;3.86;62.54688;940.4275;;;;
2021/02/22 01:26:30;;;;;;;5.1;2.7;;;;;;;3.65;63.78613;940.4481;;;;
2021/02/22 01:29:01;;;;;;;6.4;2.7;;;;;;;3.59;64.34961;940.4006;;;;
2021/02/22 01:31:27;;;;;;;5.2;2;;;;;;;3.55;64.65723;940.5352;;;;
2021/02/22 01:33:57;;;;;;;3.4;2.2;;;;;;;3.49;64.99707;940.4756;;;;
2021/02/22 01:36:29;;;;;;;2.9;1.9;;;;;;;3.36;65.22461;940.4773;;;;
2021/02/22 01:38:54;;;;;;;2.9;1.8;;;;;;;3.44;64.81055;940.598;;;;
2021/02/22 01:41:27;;;;;;;6.4;1.9;;;;;;;3.49;64.60449;940.5676;;;;
2021/02/22 01:43:59;;;;;;;5.3;1.9;;;;;;;3.57;64.17676;940.5595;;;;
2021/02/22 01:46:31;;;;;;;2.3;1.2;;;;;;;3.56;64.13184;940.5955;;;;
2021/02/22 01:49:01;;;;;;;2.7;1.6;;;;;;;3.58;64.38184;940.5064;;;;
2021/02/22 01:51:26;;;;;;;3.1;1.8;;;;;;;3.43;64.91016;940.6189;;;;
2021/02/22 01:53:57;;;;;;;6.2;2.2;;;;;;;3.26;65.0625;940.6588;;;;
2021/02/22 01:56:22;;;;;;;2.3;1.4;;;;;;;3.38;63.31836;940.5756;;;;
2021/02/22 01:58:48;;;;;;;5.3;1.6;;;;;;;3.5;61.74121;940.5403;;;;
2021/02/22 02:01:20;;;;;;;8.1;1.4;;;;;;;3.66;62.15723;940.4878;;;;
2021/02/22 02:03:45;;;;;;;1.8;1.4;;;;;;;3.72;61.7627;940.5266;;;;
2021/02/22 02:06:20;;;;;;;1.7;1.1;;;;;;;3.71;61.96289;940.5435;;;;
2021/02/22 02:08:51;;;;;;;1.4;1.1;;;;;;;3.66;61.25879;940.5856;;;;
2021/02/22 02:11:24;;;;;;;2.7;1.7;;;;;;;4.07;60.11426;940.5695;;;;
2021/02/22 02:13:51;;;;;;;2.7;1.6;;;;;;;3.98;60.96875;940.6328;;;;
2021/02/22 02:16:30;;;;;;;3.9;1.5;;;;;;;3.97;57.85254;940.5703;;;;
2021/02/22 02:19:08;;;;;;;5.6;1.7;;;;;;;4.13;59.62793;940.5323;;;;
2021/02/22 02:21:36;;;;;;;4;1.8;;;;;;;4.08;59.65527;940.5289;;;;
2021/02/22 02:24:02;;;;;;;3.5;1.9;;;;;;;4.12;59.97559;940.5344;;;;
2021/02/22 02:26:32;;;;;;;5.1;1.5;;;;;;;4;59.58789;940.5176;;;;
2021/02/22 02:29:04;;;;;;;3.5;1.7;;;;;;;4.02;60.0625;940.5692;;;;
2021/02/22 02:31:37;;;;;;;5;1.3;;;;;;;3.96;59.75;940.5783;;;;
2021/02/22 02:34:07;;;;;;;2.3;1.1;;;;;;;4.05;59.77441;940.5994;;;;
2021/02/22 02:36:39;;;;;;;4;1.6;;;;;;;3.99;59.83301;940.6802;;;;
2021/02/22 02:39:07;;;;;;;13.7;1.4;;;;;;;4.04;60.12207;940.637;;;;
2021/02/22 02:41:32;;;;;;;3.4;1.7;;;;;;;4.05;59.62988;940.6594;;;;
2021/02/22 02:43:59;;;;;;;1.8;1.1;;;;;;;3.98;59.05664;940.6763;;;;
2021/02/22 02:46:24;;;;;;;4;1.3;;;;;;;3.96;60.37988;940.796;;;;
2021/02/22 02:48:50;;;;;;;4;1.8;;;;;;;3.9;60.5957;940.8155;;;;
2021/02/22 02:51:15;;;;;;;6.5;1.9;;;;;;;3.93;60.65723;940.8751;;;;
2021/02/22 02:53:41;;;;;;;6.7;1.9;;;;;;;4.06;60.6416;940.8431;;;;
2021/02/22 02:56:07;;;;;;;13.4;2.4;;;;;;;4.03;60.88672;940.8557;;;;
2021/02/22 02:58:33;;;;;;;2.1;1.5;;;;;;;3.85;60.54492;940.7679;;;;
2021/02/22 03:00:58;;;;;;;3.2;1.7;;;;;;;3.8;60.18945;940.7852;;;;
2021/02/22 03:03:26;;;;;;;2.5;1.4;;;;;;;3.72;60.875;940.7101;;;;
2021/02/22 03:05:51;;;;;;;4.3;1.7;;;;;;;3.89;57.94238;940.657;;;;
2021/02/22 03:08:18;;;;;;;1.9;0.8;;;;;;;4.84;50.21777;940.576;;;;
2021/02/22 03:10:47;;;;;;;5.3;1.2;;;;;;;5.58;47.30273;940.6298;;;;
2021/02/22 03:13:17;;;;;;;7.3;1.7;;;;;;;5.68;50.46289;940.6269;;;;
2021/02/22 03:16:00;;;;;;;4.4;1.6;;;;;;;5.36;52.73828;940.7045;;;;
2021/02/22 03:18:29;;;;;;;3.5;1.5;;;;;;;5.09;54.13574;940.6423;;;;
2021/02/22 03:21:03;;;;;;;9.6;2.2;;;;;;;4.86;57.00293;940.6326;;;;
2021/02/22 03:23:32;;;;;;;3.7;1.2;;;;;;;4.51;55.29199;940.6114;;;;
2021/02/22 03:25:57;;;;;;;2;1.1;;;;;;;4.39;55.00488;940.65;;;;
2021/02/22 03:28:28;;;;;;;7.3;1.3;;;;;;;4.76;52.04395;940.6005;;;;
2021/02/22 03:30:54;;;;;;;2.3;1.1;;;;;;;5.3;50.54297;940.7351;;;;
2021/02/22 03:33:25;;;;;;;1.4;1;;;;;;;5.36;51.73438;940.8167;;;;
2021/02/22 03:35:56;;;;;;;3.3;1.3;;;;;;;5.29;51.64746;940.809;;;;
2021/02/22 03:38:28;;;;;;;2;1.2;;;;;;;5.31;50.60059;940.7211;;;;
2021/02/22 03:40:54;;;;;;;2.2;1.3;;;;;;;5.45;49.31934;940.7361;;;;
2021/02/22 03:43:28;;;;;;;6;1.6;;;;;;;5.9;47.45117;940.7481;;;;
2021/02/22 03:46:04;;;;;;;4;0.9;;;;;;;6.21;46.26465;940.7556;;;;
2021/02/22 03:48:32;;;;;;;3.3;1.2;;;;;;;6.19;47.2002;940.8378;;;;
2021/02/22 03:51:02;;;;;;;1.6;0.9;;;;;;;6.35;46.06543;940.8223;;;;
2021/02/22 03:53:35;;;;;;;4.5;1.5;;;;;;;6.16;49.1416;940.9191;;;;
2021/02/22 03:56:00;;;;;;;3.2;1.2;;;;;;;5.85;50.18945;941.0016;;;;
2021/02/22 03:58:33;;;;;;;1.2;0.8;;;;;;;5.81;49.6543;941.0902;;;;
2021/02/22 04:02:37;;;;;;;2.6;1.1;;;;;;;5.87;47.79785;941.0859;;;;
2021/02/22 04:05:13;;;;;;;2.2;1;;;;;;;5.85;48.33691;940.988;;;;
2021/02/22 04:07:38;;;;;;;3.9;1.5;;;;;;;5.79;48.60254;941.0887;;;;
2021/02/22 04:10:16;;;;;;;3.6;1.4;;;;;;;5.92;48.57129;941.0206;;;;
2021/02/22 04:12:41;;;;;;;9.9;1.4;;;;;;;5.64;49.74707;941.1311;;;;
2021/02/22 04:15:19;;;;;;;2.2;1.5;;;;;;;5.45;50.875;941.1886;;;;
2021/02/22 04:17:56;;;;;;;1;0.7;;;;;;;5.3;50.67773;941.1746;;;;
2021/02/22 04:20:28;;;;;;;6.4;0.8;;;;;;;5.43;49.88281;941.3342;;;;
2021/02/22 04:23:01;;;;;;;1.4;1.1;;;;;;;5.5;49.84473;941.3373;;;;
2021/02/22 04:25:26;;;;;;;2.2;1.1;;;;;;;5.65;48.40527;941.2903;;;;
2021/02/22 04:27:51;;;;;;;1.5;0.9;;;;;;;5.65;49.36523;941.3528;;;;
2021/02/22 04:30:23;;;;;;;2.3;0.9;;;;;;;5.81;47.65527;941.2681;;;;
2021/02/22 04:32:48;;;;;;;2.3;1.1;;;;;;;5.62;49.45215;941.4102;;;;
2021/02/22 04:35:16;;;;;;;6.5;1.8;;;;;;;5.65;48.6875;941.3984;;;;
2021/02/22 04:37:41;;;;;;;1.7;1.1;;;;;;;5.61;49.45215;941.6019;;;;
2021/02/22 04:40:16;;;;;;;3.9;2.2;;;;;;;5.52;48.97754;941.6578;;;;
2021/02/22 04:42:41;;;;;;;5.7;1.7;;;;;;;5.62;49.79102;941.6741;;;;
2021/02/22 04:45:14;;;;;;;5.7;1.1;;;;;;;5.81;47.97168;941.6088;;;;
2021/02/22 04:47:40;;;;;;;1.9;1.2;;;;;;;5.87;47.92285;941.5854;;;;
2021/02/22 04:50:16;;;;;;;2.4;1.1;;;;;;;5.99;48.8623;941.6091;;;;
2021/02/22 04:52:41;;;;;;;3;1.3;;;;;;;5.77;48.75684;941.6433;;;;
2021/02/22 04:55:15;;;;;;;2.2;1;;;;;;;5.71;47.52051;941.7133;;;;
2021/02/22 04:57:40;;;;;;;8.3;1.4;;;;;;;5.74;46.50684;941.6881;;;;
2021/02/22 05:00:16;;;;;;;6.3;1.3;;;;;;;6.03;45.05957;941.7216;;;;
2021/02/22 05:02:42;;;;;;;10.7;1.3;;;;;;;6.16;46.12402;941.7382;;;;
2021/02/22 05:05:15;;;;;;;5.6;1.2;;;;;;;6;46.73926;941.7725;;;;
2021/02/22 05:07:40;;;;;;;2.7;1.5;;;;;;;5.92;46.56055;941.7516;;;;
2021/02/22 05:10:15;;;;;;;1.4;0.9;;;;;;;6.05;44.63184;941.7111;;;;
2021/02/22 05:12:47;;;;;;;2;1;;;;;;;6.31;44.27441;941.8113;;;;
2021/02/22 05:15:14;;;;;;;5;1.5;;;;;;;6.12;46.70801;941.865;;;;
2021/02/22 05:17:44;;;;;;;3.9;1.8;;;;;;;6.04;47.04883;941.9091;;;;
2021/02/22 05:20:15;;;;;;;4.2;1.6;;;;;;;5.94;47.85059;941.9379;;;;
2021/02/22 05:22:48;;;;;;;1.2;0.6;;;;;;;5.76;48.8252;941.9971;;;;
2021/02/22 05:25:25;;;;;;;0.9;0.7;;;;;;;5.44;48.81055;941.9395;;;;
2021/02/22 05:27:50;;;;;;;11.1;1.7;;;;;;;5.44;48.43848;942.0294;;;;
2021/02/22 05:30:17;;;;;;;1.3;0.7;;;;;;;5.5;47.41699;941.9888;;;;
2021/02/22 05:32:43;;;;;;;1.3;0.9;;;;;;;5.64;47.30957;942.0458;;;;
2021/02/22 05:35:10;;;;;;;3.6;1.2;;;;;;;5.82;46.38086;942.0041;;;;
2021/02/22 05:37:35;;;;;;;1.2;0.8;;;;;;;5.74;47.18457;942.0627;;;;
2021/02/22 05:40:04;;;;;;;3.7;1.8;;;;;;;5.86;45.14258;942.063;;;;
2021/02/22 05:42:29;;;;;;;1.1;0.9;;;;;;;5.97;46.58887;941.9841;;;;
2021/02/22 05:44:57;;;;;;;13.5;2.6;;;;;;;5.77;47.61719;942.0544;;;;
2021/02/22 05:47:22;;;;;;;1.2;0.8;;;;;;;5.72;47.4541;942.1585;;;;
2021/02/22 05:49:47;;;;;;;1.2;0.7;;;;;;;5.68;45.83496;942.139;;;;
2021/02/22 05:52:17;;;;;;;5.5;1.1;;;;;;;5.88;45.48242;942.1356;;;;
2021/02/22 05:54:42;;;;;;;1.7;1.3;;;;;;;5.93;45.74902;942.1536;;;;
2021/02/22 05:57:12;;;;;;;3.2;1.3;;;;;;;5.8;47.39355;942.18;;;;
2021/02/22 05:59:39;;;;;;;3.2;1.7;;;;;;;5.6;48.53418;942.282;;;;
2021/02/22 06:02:05;;;;;;;4.6;2.2;;;;;;;5.57;48.76855;942.2501;;;;
2021/02/22 06:04:30;;;;;;;3;1.6;;;;;;;5.58;44.80762;942.2103;;;;
2021/02/22 06:06:55;;;;;;;2.1;1;;;;;;;5.51;48.83008;942.2978;;;;
2021/02/22 06:09:20;;;;;;;16.5;2.6;;;;;;;5.34;48.51563;942.2664;;;;
2021/02/22 06:11:51;;;;;;;4.2;1.9;;;;;;;5.43;48.84375;942.3108;;;;
2021/02/22 06:14:23;;;;;;;13.8;2.7;;;;;;;5.5;48.76172;942.3198;;;;
2021/02/22 06:16:56;;;;;;;6.2;1.9;;;;;;;5.46;49.30957;942.4227;;;;
2021/02/22 06:19:29;;;;;;;2.4;1.2;;;;;;;5.45;48.65234;942.4236;;;;
2021/02/22 06:21:54;;;;;;;2.6;1.6;;;;;;;5.39;52.69629;942.351;;;;
2021/02/22 06:24:23;;;;;;;4.6;2;;;;;;;5.24;51.08887;942.4911;;;;
2021/02/22 06:26:47;;;;;;;8.7;2.2;;;;;;;4.99;50.85645;942.5044;;;;
2021/02/22 06:29:12;;;;;;;2.6;1.4;;;;;;;5.1;50.43945;942.521;;;;
2021/02/22 06:31:43;;;;;;;5.6;2;;;;;;;5.68;45.99219;942.5323;;;;
2021/02/22 06:34:15;;;;;;;2.5;1.6;;;;;;;5.61;48.55957;942.5481;;;;
2021/02/22 06:36:43;;;;;;;3.1;1.6;;;;;;;5.27;49.8623;942.4786;;;;
2021/02/22 06:39:15;;;;;;;4.3;1.9;;;;;;;4.84;52.17871;942.5817;;;;
2021/02/22 06:41:44;;;;;;;2.6;1.4;;;;;;;4.78;53.86035;942.6158;;;;
2021/02/22 06:44:15;;;;;;;3.2;2.1;;;;;;;4.7;52.55566;942.6895;;;;
2021/02/22 06:46:48;;;;;;;9.9;2.8;;;;;;;4.8;50.84375;942.7523;;;;
2021/02/22 06:49:17;;;;;;;6.5;2.2;;;;;;;5.07;50.84277;942.7142;;;;
2021/02/22 06:51:45;;;;;;;4.8;1.8;;;;;;;5.31;50.20605;942.6816;;;;
2021/02/22 06:54:16;;;;;;;15.2;5.9;;;;;;;5.43;50.32227;942.6152;;;;
2021/02/22 06:56:46;;;;;;;31.5;11.6;;;;;;;5.72;51.12305;942.7202;;;;
2021/02/22 06:59:17;;;;;;;40.3;14.5;;;;;;;5.91;49.04395;942.7445;;;;
2021/02/22 07:01:50;;;;;;;25.4;11.6;;;;;;;6.31;47.08887;942.8423;;;;
2021/02/22 07:04:15;;;;;;;23.3;7.2;;;;;;;6.74;45.64258;942.8011;;;;
2021/02/22 07:06:45;;;;;;;3;2;;;;;;;6.96;46.60547;942.8446;;;;
2021/02/22 07:09:16;;;;;;;6.4;2.5;;;;;;;7.21;46.56543;942.8884;;;;
2021/02/22 07:11:45;;;;;;;9.9;2.1;;;;;;;7.57;45.83301;942.9687;;;;
2021/02/22 07:14:16;;;;;;;16.7;2.5;;;;;;;8.04;45.40625;942.9695;;;;
2021/02/22 07:16:44;;;;;;;4.9;1.9;;;;;;;8.44;43.77832;943.045;;;;
2021/02/22 07:19:11;;;;;;;7.3;2.6;;;;;;;8.57;42.49609;943.0784;;;;
2021/02/22 07:21:40;;;;;;;5.8;2.2;;;;;;;8.89;41.71973;943.0485;;;;
2021/02/22 07:24:06;;;;;;;6.3;2.1;;;;;;;9.68;40.88477;943.0159;;;;
2021/02/22 07:26:33;;;;;;;5.4;2.4;;;;;;;10.48;39.46484;942.9903;;;;
2021/02/22 07:29:04;;;;;;;2.9;1.6;;;;;;;10.8;36.14746;943.0087;;;;
2021/02/22 07:31:38;;;;;;;19.9;1.6;;;;;;;11.01;33.00977;942.8755;;;;
2021/02/22 07:34:03;;;;;;;1.2;0.7;;;;;;;11.41;34.31055;943.001;;;;
2021/02/22 07:36:34;;;;;;;3.4;1.4;;;;;;;11.66;33.82715;943.0472;;;;
2021/02/22 07:39:01;;;;;;;2.1;1.5;;;;;;;11.8;34.63965;943.0317;;;;
2021/02/22 07:41:26;;;;;;;6;1.9;;;;;;;11.83;35.14453;943.0586;;;;
2021/02/22 07:44:00;;;;;;;5;1.8;;;;;;;11.7;35.39844;943.0254;;;;
2021/02/22 07:46:27;;;;;;;11.3;3;;;;;;;11.64;35.82813;943.098;;;;
2021/02/22 07:48:58;;;;;;;7.1;2.7;;;;;;;12.26;33.3916;943.0306;;;;
2021/02/22 07:51:29;;;;;;;5.7;2.3;;;;;;;12.14;33.17676;943.1424;;;;
2021/02/22 07:53:59;;;;;;;10.5;1.4;;;;;;;12.36;33.3877;943.1131;;;;
2021/02/22 07:56:31;;;;;;;8.3;1.7;;;;;;;12.57;32.0625;943.0875;;;;
2021/02/22 07:59:01;;;;;;;5.1;1.8;;;;;;;13.1;32.49219;943.0969;;;;
2021/02/22 08:01:29;;;;;;;9.3;1.4;;;;;;;13.9;30.66406;943.0165;;;;
2021/02/22 08:04:00;;;;;;;2.1;1.1;;;;;;;14.81;29.97949;942.9747;;;;
2021/02/22 08:06:31;;;;;;;2.6;1.4;;;;;;;15.95;28.01074;942.9308;;;;
2021/02/22 08:09:03;;;;;;;6.3;1.9;;;;;;;16.68;27.4209;943.0444;;;;
2021/02/22 08:11:27;;;;;;;2.2;1.3;;;;;;;17.37;26.16406;943.0198;;;;
2021/02/22 08:13:53;;;;;;;2.1;1.3;;;;;;;17.88;25.37109;942.9788;;;;
2021/02/22 08:16:36;;;;;;;4.7;1.5;;;;;;;18.33;25.15234;943.0442;;;;
2021/02/22 08:19:13;;;;;;;3.6;1.7;;;;;;;18.63;24.33301;943.0475;;;;
2021/02/22 08:21:41;;;;;;;4.7;1.3;;;;;;;18.99;23.62988;943.0522;;;;
2021/02/22 08:24:08;;;;;;;3.5;1.7;;;;;;;21.11;22.67969;943.1057;;;;
2021/02/22 08:26:33;;;;;;;3.9;1.2;;;;;;;22.77;20.32227;943.0511;;;;
2021/02/22 08:29:03;;;;;;;2.6;0.9;;;;;;;23.86;18.1123;943.0691;;;;
2021/02/22 08:31:28;;;;;;;1.8;0.9;;;;;;;24.9;18.02539;943.1298;;;;
2021/02/22 08:34:00;;;;;;;3.7;1.5;;;;;;;24.69;17.21484;943.1039;;;;
2021/02/22 08:36:28;;;;;;;11;1.2;;;;;;;25.44;16.94824;943.1857;;;;
2021/02/22 08:39:02;;;;;;;8.8;2.1;;;;;;;25.95;16.24609;943.1473;;;;
2021/02/22 08:41:31;;;;;;;8.7;1.7;;;;;;;26.26;16.16309;943.1633;;;;
2021/02/22 08:43:58;;;;;;;7.9;1.7;;;;;;;26.53;16.06641;943.1821;;;;
2021/02/22 08:46:29;;;;;;;21.5;3.5;;;;;;;26.6;15.64258;943.1936;;;;
2021/02/22 08:48:55;;;;;;;14.2;1.3;;;;;;;25.97;15.40723;943.1638;;;;
2021/02/22 08:51:23;;;;;;;1.5;0.7;;;;;;;26.34;15.5625;943.159;;;;
2021/02/22 08:53:57;;;;;;;6.9;1.6;;;;;;;27.78;15.98047;943.1783;;;;
2021/02/22 08:56:22;;;;;;;3.2;1.1;;;;;;;27.03;16.77148;943.1906;;;;
2021/02/22 08:58:47;;;;;;;2.2;0.7;;;;;;;26.82;16.43262;943.2075;;;;
2021/02/22 09:01:13;;;;;;;1.5;0.6;;;;;;;27.26;14.97754;943.2947;;;;
2021/02/22 09:03:40;;;;;;;1.1;0.8;;;;;;;27.12;14.66504;943.288;;;;
2021/02/22 09:06:06;;;;;;;6.6;0.8;;;;;;;25.71;14.97266;943.3433;;;;
2021/02/22 09:08:32;;;;;;;2;0.4;;;;;;;24.91;14.58105;943.2558;;;;
2021/02/22 09:10:57;;;;;;;1.5;0.5;;;;;;;23.08;16.44824;943.2894;;;;
2021/02/22 09:13:26;;;;;;;1.7;1;;;;;;;24.13;15.61523;943.2551;;;;
2021/02/22 09:16:07;;;;;;;1.1;0.6;;;;;;;23.89;15.22949;943.2681;;;;
2021/02/22 09:18:32;;;;;;;2.3;1.1;;;;;;;24.39;15.10645;943.2888;;;;
2021/02/22 09:21:01;;;;;;;3;0.8;;;;;;;23.2;14.91309;943.3142;;;;
2021/02/22 09:23:28;;;;;;;1;0.8;;;;;;;22.79;15.7207;943.3755;;;;
2021/02/22 09:25:56;;;;;;;0.8;0.5;;;;;;;22.97;14.45898;943.3519;;;;
2021/02/22 09:28:21;;;;;;;3.7;1;;;;;;;22.54;15.31348;943.358;;;;
2021/02/22 09:30:47;;;;;;;1.3;0.5;;;;;;;22.31;15.17578;943.4041;;;;
2021/02/22 09:33:12;;;;;;;2.2;0.6;;;;;;;22.33;16.45508;943.4352;;;;
2021/02/22 09:35:38;;;;;;;1.7;0.7;;;;;;;21.66;16.12598;943.4525;;;;
2021/02/22 09:38:05;;;;;;;5.6;2;;;;;;;21.29;16.83789;943.3926;;;;
2021/02/22 09:40:30;;;;;;;2.1;0.9;;;;;;;21.84;16.01563;943.3679;;;;
2021/02/22 09:42:57;;;;;;;2.6;1.2;;;;;;;21.85;15.67578;943.3821;;;;
2021/02/22 09:45:22;;;;;;;2.5;0.9;;;;;;;22.12;15.41602;943.4056;;;;
2021/02/22 09:47:48;;;;;;;0.9;0.5;;;;;;;21.79;16.62305;943.397;;;;
2021/02/22 09:50:15;;;;;;;7.3;0.9;;;;;;;22.32;17.34668;943.4297;;;;
2021/02/22 09:52:40;;;;;;;3.3;0.9;;;;;;;22.16;17;943.4467;;;;
2021/02/22 09:55:09;;;;;;;1.9;0.6;;;;;;;21.65;17.60059;943.4268;;;;
2021/02/22 09:57:37;;;;;;;0.6;0.3;;;;;;;22.25;16.58203;943.3965;;;;
2021/02/22 10:00:02;;;;;;;3.9;1;;;;;;;23.06;15.36621;943.3395;;;;
2021/02/22 10:02:28;;;;;;;15;1.1;;;;;;;23.26;16.01953;943.3412;;;;
2021/02/22 10:04:54;;;;;;;3.3;0.4;;;;;;;23.93;16.11426;943.2575;;;;
2021/02/22 10:07:19;;;;;;;0.4;0.3;;;;;;;23.96;15.29199;943.2834;;;;
2021/02/22 10:09:46;;;;;;;0.8;0.6;;;;;;;24.08;15.64941;943.2745;;;;
2021/02/22 10:12:11;;;;;;;1.5;0.7;;;;;;;24.43;15.14258;943.2745;;;;
2021/02/22 10:14:37;;;;;;;0.6;0.4;;;;;;;24.33;14.14941;943.2967;;;;
2021/02/22 10:17:12;;;;;;;1.2;0.3;;;;;;;24.21;14.11035;943.2545;;;;
2021/02/22 10:19:38;;;;;;;0.6;0.5;;;;;;;23.51;15.16992;943.2609;;;;
2021/02/22 10:22:06;;;;;;;0.3;0.3;;;;;;;23.25;13.87988;943.3188;;;;
2021/02/22 10:24:30;;;;;;;1;0.5;;;;;;;23.45;14.6748;943.2523;;;;
2021/02/22 10:26:58;;;;;;;0.8;0.4;;;;;;;23.52;13.8418;943.2297;;;;
2021/02/22 10:29:23;;;;;;;0.2;0.2;;;;;;;23.16;13.03125;943.2302;;;;
2021/02/22 10:31:50;;;;;;;0.5;0.1;;;;;;;22.51;13.41113;943.2155;;;;
2021/02/22 10:34:15;;;;;;;1;0.3;;;;;;;22.14;13.8457;943.2582;;;;
2021/02/22 10:36:42;;;;;;;1.5;0.5;;;;;;;22.04;14.7334;943.3477;;;;
2021/02/22 10:39:07;;;;;;;3.3;0.7;;;;;;;22.08;14.64063;943.3694;;;;
2021/02/22 10:41:33;;;;;;;2.1;0.8;;;;;;;21.83;15.35938;943.4402;;;;
2021/02/22 10:43:58;;;;;;;0.4;0.4;;;;;;;21.94;15.30469;943.4116;;;;
2021/02/22 10:46:25;;;;;;;2.7;0.4;;;;;;;22.03;14.96777;943.3932;;;;
2021/02/22 10:48:49;;;;;;;1.9;0.7;;;;;;;22.34;15.14258;943.4323;;;;
2021/02/22 10:51:18;;;;;;;0.5;0.5;;;;;;;22.14;14.50195;943.4066;;;;
2021/02/22 10:53:47;;;;;;;1;0.5;;;;;;;21.85;14.02441;943.4055;;;;
2021/02/22 10:56:12;;;;;;;0.9;0.6;;;;;;;21.71;14.71094;943.4128;;;;
2021/02/22 10:58:40;;;;;;;7.9;0.3;;;;;;;22.11;13.8916;943.3938;;;;
2021/02/22 11:01:06;;;;;;;0.5;0.4;;;;;;;22.29;14.87109;943.3566;;;;
2021/02/22 11:03:31;;;;;;;3.3;0.4;;;;;;;22.43;13.71387;943.2897;;;;
2021/02/22 11:05:57;;;;;;;2.2;0.4;;;;;;;22.83;13.38574;943.2767;;;;
2021/02/22 11:08:22;;;;;;;0.3;0.2;;;;;;;23.33;13.98926;943.3038;;;;
2021/02/22 11:10:50;;;;;;;0.8;0.2;;;;;;;23.55;12.97168;943.2819;;;;
2021/02/22 11:13:15;;;;;;;0.6;0.3;;;;;;;22.76;13.85352;943.2356;;;;
2021/02/22 11:15:42;;;;;;;0.3;0.2;;;;;;;22.64;13.52051;943.2541;;;;
2021/02/22 11:18:12;;;;;;;0.7;0.3;;;;;;;22.84;14.07813;943.2747;;;;
2021/02/22 11:20:43;;;;;;;1.6;0.5;;;;;;;23.35;13.2373;943.2673;;;;
2021/02/22 11:23:10;;;;;;;3.4;1.6;;;;;;;23.65;13.15137;943.222;;;;
2021/02/22 11:25:35;;;;;;;0.8;0.4;;;;;;;23.62;12.62109;943.1974;;;;
2021/02/22 11:28:01;;;;;;;0.8;0.8;;;;;;;23.65;13.09277;943.1846;;;;
2021/02/22 11:30:26;;;;;;;0.8;0.4;;;;;;;24.21;12.95605;943.1537;;;;
2021/02/22 11:32:53;;;;;;;1;0.2;;;;;;;25.35;12.91797;943.1586;;;;
2021/02/22 11:35:18;;;;;;;0.7;0.5;;;;;;;26.48;12.2998;943.1662;;;;
2021/02/22 11:37:45;;;;;;;0.7;0.5;;;;;;;26.79;10.78027;943.0856;;;;
2021/02/22 11:40:10;;;;;;;0.9;0.5;;;;;;;27.35;11.32715;943.1121;;;;
2021/02/22 11:42:35;;;;;;;0.1;0.1;;;;;;;27.77;10.80371;943.077;;;;
2021/02/22 11:45:00;;;;;;;10.6;1.5;;;;;;;28.96;9.832031;943.0367;;;;
2021/02/22 11:47:25;;;;;;;0.9;0.2;;;;;;;28.06;9.848633;943.0516;;;;
2021/02/22 11:49:51;;;;;;;1.2;0.6;;;;;;;27.93;9.583984;943.0754;;;;
2021/02/22 11:52:16;;;;;;;2.1;0.7;;;;;;;28.05;10.2998;943.1117;;;;
2021/02/22 11:54:42;;;;;;;0.3;0.2;;;;;;;29.13;9.907227;943.1164;;;;
2021/02/22 11:57:08;;;;;;;2.7;0.8;;;;;;;29.29;9.125;943.1284;;;;
2021/02/22 11:59:35;;;;;;;5.5;0.4;;;;;;;30.22;9.477539;943.1646;;;;
2021/02/22 12:02:00;;;;;;;0.7;0.6;;;;;;;29.22;10.23145;943.1721;;;;
2021/02/22 12:04:28;;;;;;;1.1;0.4;;;;;;;29.63;11.71875;943.1613;;;;
2021/02/22 12:06:53;;;;;;;1.4;0.4;;;;;;;29.81;12.0332;943.133;;;;
2021/02/22 12:09:18;;;;;;;0.5;0.3;;;;;;;29.33;12.23535;943.0859;;;;
2021/02/22 12:11:43;;;;;;;0.2;0.2;;;;;;;28.85;10.0918;943.0336;;;;
2021/02/22 12:14:11;;;;;;;0.5;0.3;;;;;;;30.06;12.17188;943.0974;;;;
2021/02/22 12:16:51;;;;;;;0.9;0.5;;;;;;;31.23;11.28125;942.9753;;;;
2021/02/22 12:19:16;;;;;;;0.8;0.5;;;;;;;31.61;9.243164;942.975;;;;
2021/02/22 12:21:44;;;;;;;0.2;0.1;;;;;;;31.37;8.245117;942.9547;;;;
2021/02/22 12:24:09;;;;;;;0.7;0.2;;;;;;;31.31;8.148438;942.8934;;;;
2021/02/22 12:26:35;;;;;;;0.2;0.1;;;;;;;32.46;8.792969;942.9821;;;;
2021/02/22 12:29:00;;;;;;;1.2;0.5;;;;;;;32.97;7.854492;943.0089;;;;
2021/02/22 12:31:26;;;;;;;0.2;0.1;;;;;;;32.58;7.391602;942.937;;;;
2021/02/22 12:33:51;;;;;;;0.4;0.1;;;;;;;31.45;7.696289;943.0153;;;;
2021/02/22 12:36:19;;;;;;;0.9;0.2;;;;;;;31.64;8.477539;942.9683;;;;
2021/02/22 12:38:50;;;;;;;0.3;0.3;;;;;;;32.23;8.237305;942.9457;;;;
2021/02/22 12:41:19;;;;;;;0.9;0.3;;;;;;;31.36;8.543945;942.9803;;;;
2021/02/22 12:43:45;;;;;;;0.9;0.4;;;;;;;30.49;9.483398;942.9668;;;;
2021/02/22 12:46:10;;;;;;;0;0;;;;;;;30.23;9.275391;942.9688;;;;
2021/02/22 12:48:35;;;;;;;0.7;0.5;;;;;;;29.14;8.966797;942.9384;;;;
2021/02/22 12:51:01;;;;;;;0.2;0.2;;;;;;;30.67;8.9375;942.8973;;;;
2021/02/22 12:53:26;;;;;;;7.8;0.3;;;;;;;31.56;8.966797;942.9322;;;;
2021/02/22 12:55:54;;;;;;;0.1;0.1;;;;;;;32.76;8.655273;942.9338;;;;
2021/02/22 12:58:19;;;;;;;0.3;0.2;;;;;;;33.73;7.987305;942.9842;;;;
2021/02/22 13:00:46;;;;;;;0.8;0.3;;;;;;;34.54;8.097656;943.0147;;;;
2021/02/22 13:03:11;;;;;;;0.2;0.1;;;;;;;32.42;7.952148;942.9193;;;;
2021/02/22 13:05:44;;;;;;;2.6;0.5;;;;;;;31.48;8.905273;942.9662;;;;
2021/02/22 13:08:12;;;;;;;2.5;0.7;;;;;;;32.97;8.875;942.9125;;;;
2021/02/22 13:10:38;;;;;;;1.9;0.5;;;;;;;31.7;8.311523;942.8909;;;;
2021/02/22 13:13:03;;;;;;;0.3;0.2;;;;;;;31.98;7.944336;942.8908;;;;
2021/02/22 13:15:40;;;;;;;1.1;0.4;;;;;;;31.74;8.167969;942.8833;;;;
2021/02/22 13:18:15;;;;;;;1.3;0.3;;;;;;;30.37;8.513672;942.8677;;;;
2021/02/22 13:20:42;;;;;;;0.6;0.3;;;;;;;29.38;9.019531;942.8599;;;;
2021/02/22 13:23:07;;;;;;;2.5;0.5;;;;;;;30.36;8.776367;942.8253;;;;
2021/02/22 13:25:33;;;;;;;0.8;0.2;;;;;;;31.26;8.208008;942.7511;;;;
2021/02/22 13:27:58;;;;;;;0.4;0.3;;;;;;;31.21;8.050781;942.7304;;;;
2021/02/22 13:30:24;;;;;;;1.1;0.3;;;;;;;32.59;8.351563;942.7548;;;;
2021/02/22 13:32:49;;;;;;;0.2;0.1;;;;;;;32.88;7.408203;942.7794;;;;
2021/02/22 13:35:14;;;;;;;5.4;0.5;;;;;;;31.8;8.289063;942.7497;;;;
2021/02/22 13:37:41;;;;;;;2;0.4;;;;;;;30.28;8.666992;942.7552;;;;
2021/02/22 13:40:06;;;;;;;0.3;0.2;;;;;;;29.14;9.264648;942.8678;;;;
2021/02/22 13:42:33;;;;;;;0.8;0.3;;;;;;;28.79;9.602539;942.86;;;;
2021/02/22 13:44:58;;;;;;;0.8;0.3;;;;;;;28.82;9.984375;942.9748;;;;
2021/02/22 13:47:27;;;;;;;2.5;0.2;;;;;;;29.31;10.20898;942.9333;;;;
2021/02/22 13:49:59;;;;;;;0.1;0.1;;;;;;;29.41;8.853516;943.0158;;;;
2021/02/22 13:52:23;;;;;;;0.1;0.1;;;;;;;29.3;9.625;942.9334;;;;
2021/02/22 13:54:49;;;;;;;2.2;0.3;;;;;;;29.81;9.827148;942.9608;;;;
2021/02/22 13:57:14;;;;;;;0.2;0.2;;;;;;;30.2;9.238281;942.9127;;;;
2021/02/22 13:59:39;;;;;;;0.4;0.1;;;;;;;29.92;9.172852;942.9221;;;;
2021/02/22 14:02:07;;;;;;;4.8;0.5;;;;;;;30.11;9.249023;942.8974;;;;
2021/02/22 14:04:32;;;;;;;0.7;0.5;;;;;;;30.53;9.256836;942.8818;;;;
2021/02/22 14:06:59;;;;;;;0.8;0.2;;;;;;;29.04;10.29785;942.9016;;;;
2021/02/22 14:09:25;;;;;;;0.5;0.2;;;;;;;28.98;10.43945;942.9054;;;;
2021/02/22 14:11:52;;;;;;;2;0.2;;;;;;;28.93;10.48633;942.9227;;;;
2021/02/22 14:14:17;;;;;;;0.2;0.1;;;;;;;28.58;11.69141;942.921;;;;
2021/02/22 14:16:42;;;;;;;0.7;0.6;;;;;;;28.93;11.49805;942.8997;;;;
2021/02/22 14:19:09;;;;;;;8;0.6;;;;;;;27.08;13.63281;942.9551;;;;
2021/02/22 14:21:35;;;;;;;0.9;0.3;;;;;;;25.24;14.13086;942.9676;;;;
2021/02/22 14:24:01;;;;;;;0.4;0.2;;;;;;;25;14.87891;943.0398;;;;
2021/02/22 14:26:26;;;;;;;1.4;0.7;;;;;;;24.88;13.48242;943.0295;;;;
2021/02/22 14:28:52;;;;;;;0.9;0.3;;;;;;;25.16;13.2666;943.0728;;;;
2021/02/22 14:31:18;;;;;;;0.9;0.6;;;;;;;26.26;13.27637;943.0922;;;;
2021/02/22 14:33:50;;;;;;;1.3;0.4;;;;;;;25.68;13.17578;943.1019;;;;
2021/02/22 14:36:21;;;;;;;0.6;0.3;;;;;;;25.9;13.28906;943.1267;;;;
2021/02/22 14:38:46;;;;;;;1.3;0.4;;;;;;;25.73;12.72852;943.1262;;;;
2021/02/22 14:41:13;;;;;;;0.4;0.3;;;;;;;26.07;12.52539;943.1637;;;;